createdAt,value
2022-08-22T00:03:11.175Z,0.3
2022-08-22T00:07:45.565Z,0.8
2022-08-22T00:12:45.339Z,0.5
2022-08-22T00:17:45.124Z,0.5
2022-08-22T00:22:44.920Z,0.4
2022-08-22T00:27:45.161Z,0.7
2022-08-22T00:32:44.546Z,0.5
2022-08-22T00:37:44.281Z,0.5
2022-08-22T00:42:44.064Z,0.7
2022-08-22T00:47:43.868Z,0.5
2022-08-22T00:52:43.643Z,0.6
2022-08-22T00:57:43.407Z,0.5
2022-08-22T01:02:43.172Z,0.8
2022-08-22T01:07:42.950Z,0.7
2022-08-22T01:12:42.713Z,0.7
2022-08-22T01:17:42.519Z,0.7
2022-08-22T01:22:42.244Z,0.6
2022-08-22T01:27:42.045Z,0.5
2022-08-22T01:32:41.766Z,0.8
2022-08-22T01:37:43.869Z,1.1
2022-08-22T01:42:41.340Z,0.9
2022-08-22T01:47:41.120Z,0.9
2022-08-22T01:52:40.902Z,0.6
2022-08-22T01:57:40.699Z,0.7
2022-08-22T02:02:40.477Z,0.8
2022-08-22T02:07:40.221Z,0.7
2022-08-22T02:12:40.016Z,0.8
2022-08-22T02:17:39.784Z,0.9
2022-08-22T02:22:44.355Z,0.8
2022-08-22T02:27:39.277Z,0.8
2022-08-22T02:32:38.988Z,0.8
2022-08-22T02:37:38.751Z,1.2
2022-08-22T02:42:38.511Z,1
2022-08-22T02:47:38.286Z,1.1
2022-08-22T02:52:37.963Z,1
2022-08-22T02:57:39.700Z,0.9
2022-08-22T03:02:37.465Z,1.1
2022-08-22T03:07:37.239Z,1
2022-08-22T03:12:36.957Z,1
2022-08-22T03:17:36.719Z,1.3
2022-08-22T03:22:36.500Z,1.1
2022-08-22T03:27:36.216Z,1.2
2022-08-22T03:32:35.977Z,1
2022-08-22T03:37:35.700Z,1.2
2022-08-22T03:42:35.444Z,1.6
2022-08-22T03:47:35.171Z,1.2
2022-08-22T03:52:34.927Z,1.4
2022-08-22T03:57:36.059Z,1.2
2022-08-22T04:02:43.222Z,1.5
2022-08-22T04:07:34.194Z,1.5
2022-08-22T04:12:33.916Z,1.4
2022-08-22T04:17:33.710Z,1.5
2022-08-22T04:22:34.872Z,1.3
2022-08-22T04:27:33.232Z,1.2
2022-08-22T04:32:32.941Z,1.3
2022-08-22T04:37:32.716Z,1
2022-08-22T04:42:33.706Z,1.2
2022-08-22T04:47:32.263Z,1.5
2022-08-22T04:52:31.995Z,1.9
2022-08-22T04:57:31.790Z,2
2022-08-22T05:02:31.564Z,1.8
2022-08-22T05:07:32.377Z,2
2022-08-22T05:12:31.773Z,1.6
2022-08-22T05:17:30.917Z,1.8
2022-08-22T05:22:30.706Z,1.8
2022-08-22T05:27:30.496Z,1.6
2022-08-22T05:32:30.255Z,1.5
2022-08-22T05:37:30.003Z,1.8
2022-08-22T05:42:29.774Z,2
2022-08-22T05:47:29.520Z,1.6
2022-08-22T05:52:29.236Z,1.6
2022-08-22T05:57:29.031Z,1.7
2022-08-22T06:02:28.797Z,1.5
2022-08-22T06:07:28.583Z,1.4
2022-08-22T06:12:28.374Z,2.6
2022-08-22T06:17:28.179Z,1.6
2022-08-22T06:22:27.949Z,1.3
2022-08-22T06:27:31.076Z,1.4
2022-08-22T06:32:44.387Z,1.5
2022-08-22T06:37:27.327Z,1.7
2022-08-22T06:47:27.182Z,11.9
2022-08-22T06:52:26.646Z,6.6
2022-08-22T06:57:26.550Z,4.6
2022-08-22T07:02:26.214Z,1.4
2022-08-22T07:07:25.990Z,3.7
2022-08-22T07:12:25.763Z,1.4
2022-08-22T07:17:25.511Z,1.6
2022-08-22T07:22:25.258Z,1.3
2022-08-22T07:27:25.002Z,1.3
2022-08-22T07:32:24.790Z,1.8
2022-08-22T07:37:24.554Z,1.5
2022-08-22T07:42:27.489Z,1.5
2022-08-22T07:47:26.696Z,1.7
2022-08-22T07:52:23.839Z,1.4
2022-08-22T07:57:23.614Z,1.8
2022-08-22T08:02:23.361Z,1.5
2022-08-22T08:07:23.172Z,2.2
2022-08-22T08:12:22.957Z,1.8
2022-08-22T08:17:22.703Z,1.8
2022-08-22T08:22:23.640Z,1.5
2022-08-22T08:27:22.238Z,2.4
2022-08-22T08:32:22.090Z,1.6
2022-08-22T08:37:21.838Z,1.6
2022-08-22T08:42:21.554Z,1.9
2022-08-22T08:47:21.368Z,2.1
2022-08-22T08:52:21.081Z,2.5
2022-08-22T08:57:20.894Z,2.8
2022-08-22T09:02:23.489Z,3.6
2022-08-22T09:07:22.898Z,2.4
2022-08-22T09:12:20.195Z,2.7
2022-08-22T09:17:20.002Z,2.3
2022-08-22T09:22:19.718Z,1.9
2022-08-22T09:27:19.463Z,1.9
2022-08-22T09:32:19.254Z,2.3
2022-08-22T09:37:18.976Z,2.9
2022-08-22T09:42:18.777Z,2.4
2022-08-22T09:47:24.516Z,2
2022-08-22T09:52:33.113Z,1.7
2022-08-22T09:57:18.116Z,2.1
2022-08-22T10:02:17.923Z,2.3
2022-08-22T10:07:17.639Z,2.5
2022-08-22T10:12:17.427Z,2.4
2022-08-22T10:17:21.880Z,3
2022-08-22T10:22:16.975Z,2.4
2022-08-22T10:27:16.803Z,2.4
2022-08-22T10:32:16.614Z,2.2
2022-08-22T10:37:16.358Z,2
2022-08-22T10:42:18.659Z,1.9
2022-08-22T10:47:15.932Z,1.7
2022-08-22T10:52:16.318Z,2.3
2022-08-22T10:57:15.482Z,2.6
2022-08-22T11:02:15.350Z,2.7
2022-08-22T11:07:15.184Z,2.8
2022-08-22T11:12:14.995Z,2
2022-08-22T11:17:27.488Z,2.2
2022-08-22T11:22:14.618Z,2.8
2022-08-22T11:27:14.423Z,2.8
2022-08-22T11:32:14.232Z,2.9
2022-08-22T11:37:14.073Z,3
2022-08-22T11:42:13.802Z,3
2022-08-22T11:47:13.670Z,2.7
2022-08-22T11:52:13.508Z,2.6
2022-08-22T11:57:13.331Z,2.7
2022-08-22T12:02:13.199Z,2.5
2022-08-22T12:07:12.959Z,2.7
2022-08-22T12:12:12.749Z,2.8
2022-08-22T12:17:21.268Z,2.5
2022-08-22T12:22:12.369Z,2.2
2022-08-22T12:27:12.168Z,2.5
2022-08-22T12:32:12.025Z,2.7
2022-08-22T12:37:11.877Z,2.6
2022-08-22T12:42:11.698Z,2.1
2022-08-22T12:47:11.493Z,2.2
2022-08-22T12:52:11.360Z,2.1
2022-08-22T12:57:23.464Z,2.2
2022-08-22T13:02:10.994Z,2.3
2022-08-22T13:07:10.824Z,1.9
2022-08-22T13:12:10.609Z,1.9
2022-08-22T13:17:25.146Z,2.3
2022-08-22T13:22:10.299Z,2.3
2022-08-22T13:27:11.322Z,2.1
2022-08-22T13:32:09.948Z,2
2022-08-22T13:37:10.091Z,2.3
2022-08-22T13:40:55.549Z,2.3
2022-08-22T13:42:14.552Z,2
2022-08-22T13:47:13.651Z,2.4
2022-08-22T13:52:14.446Z,2.8
2022-08-22T13:57:09.061Z,2.2
2022-08-22T14:02:15.130Z,2.2
2022-08-22T14:07:08.738Z,2.5
2022-08-22T14:12:11.935Z,3.4
2022-08-22T14:17:08.412Z,2.7
2022-08-22T14:22:08.237Z,4.2
2022-08-22T14:27:08.113Z,3
2022-08-22T14:28:27.334Z,3
2022-08-22T14:32:08.804Z,3.4
2022-08-22T14:37:07.740Z,2.8
2022-08-22T14:42:10.099Z,2.9
2022-08-22T14:47:15.819Z,4
2022-08-22T14:52:07.213Z,4.4
2022-08-22T14:57:10.421Z,3.6
2022-08-22T15:02:07.144Z,2.4
2022-08-22T15:07:06.691Z,2.3
2022-08-22T15:12:06.526Z,2.4
2022-08-22T15:17:06.350Z,2
2022-08-22T15:22:06.204Z,2
2022-08-22T15:27:07.115Z,2.1
2022-08-22T15:32:05.909Z,1.7
2022-08-22T15:37:09.817Z,1.5
2022-08-22T15:42:05.594Z,1.8
2022-08-22T15:47:05.441Z,2.4
2022-08-22T15:52:05.316Z,2
2022-08-22T16:02:05.194Z,2.3
2022-08-22T16:12:04.770Z,2.2
2022-08-22T16:17:04.574Z,2.2
2022-08-22T16:22:04.372Z,2.5
2022-08-22T16:27:04.233Z,1.9
2022-08-22T16:32:04.062Z,2.5
2022-08-22T16:37:05.030Z,2.5
2022-08-22T16:42:03.712Z,2.6
2022-08-22T16:47:03.557Z,2.1
2022-08-22T16:52:03.399Z,2.2
2022-08-22T16:57:03.207Z,3.2
2022-08-22T17:02:03.033Z,3.5
2022-08-22T17:07:02.855Z,3.4
2022-08-22T17:12:02.674Z,2.5
2022-08-22T17:17:02.454Z,2.3
2022-08-22T17:22:02.262Z,2.8
2022-08-22T17:27:02.078Z,2.2
2022-08-22T17:32:01.934Z,2.3
2022-08-22T17:37:01.709Z,2.2
2022-08-22T17:42:01.563Z,2.2
2022-08-22T17:47:01.348Z,2.6
2022-08-22T17:52:01.167Z,3.4
2022-08-22T17:57:05.822Z,3.2
2022-08-22T18:02:00.753Z,3
2022-08-22T18:07:00.583Z,3
2022-08-22T18:12:00.457Z,2.6
2022-08-22T18:17:00.234Z,2.9
2022-08-22T18:21:59.965Z,2.8
2022-08-22T18:26:59.774Z,2.8
2022-08-22T18:31:59.535Z,3.2
2022-08-22T18:36:59.305Z,3.2
2022-08-22T18:41:59.090Z,3.1
2022-08-22T18:46:58.843Z,3.4
2022-08-22T18:51:58.604Z,3.3
2022-08-22T18:56:58.376Z,4
2022-08-22T19:01:58.200Z,4.8
2022-08-22T19:06:57.928Z,5.9
2022-08-22T19:11:57.717Z,5
2022-08-22T19:16:58.815Z,5.8
2022-08-22T19:21:57.226Z,5.2
2022-08-22T19:26:57.020Z,5
2022-08-22T19:31:56.799Z,5.7
2022-08-22T19:36:56.575Z,5.4
2022-08-22T19:41:56.298Z,5.4
2022-08-22T19:46:56.084Z,5.4
2022-08-22T19:51:55.844Z,5.3
2022-08-22T19:56:55.558Z,5
2022-08-22T20:01:55.368Z,5
2022-08-22T20:06:55.100Z,5.4
2022-08-22T20:11:54.924Z,4.6
2022-08-22T20:14:07.435Z,4.6
2022-08-22T20:16:54.671Z,4.2
2022-08-22T20:21:54.478Z,4.1
2022-08-22T20:27:12.825Z,4.3
2022-08-22T20:31:58.181Z,4.3
2022-08-22T20:37:09.821Z,4.4
2022-08-22T20:41:53.673Z,4.9
2022-08-22T20:46:55.198Z,4.8
2022-08-22T20:51:53.235Z,4.5
2022-08-22T20:56:53.898Z,6.3
2022-08-22T21:01:52.851Z,8.2
2022-08-22T21:06:52.586Z,7.7
2022-08-22T21:11:52.429Z,6.1
2022-08-22T21:16:52.198Z,6
2022-08-22T21:21:51.999Z,4.5
2022-08-22T21:26:51.782Z,4.7
2022-08-22T21:31:51.599Z,5
2022-08-22T21:36:51.359Z,4.9
2022-08-22T21:41:51.197Z,5.5
2022-08-22T21:46:52.465Z,4.8
2022-08-22T21:51:50.748Z,5
2022-08-22T21:56:50.503Z,4.8
2022-08-22T22:01:50.230Z,4.9
2022-08-22T22:06:50.021Z,5.2
2022-08-22T22:11:49.769Z,5.8
2022-08-22T22:16:49.546Z,5.2
2022-08-22T22:21:49.482Z,5.5
2022-08-22T22:26:49.072Z,5.4
2022-08-22T22:31:48.849Z,5.4
2022-08-22T22:36:48.617Z,5.5
2022-08-22T22:41:48.385Z,5
2022-08-22T22:46:48.148Z,4.7
2022-08-22T22:51:47.929Z,4.2
2022-08-22T22:56:47.905Z,4.9
2022-08-22T23:01:47.455Z,4.6
2022-08-22T23:06:47.184Z,4.5
2022-08-22T23:11:46.913Z,4
2022-08-22T23:16:46.685Z,5
2022-08-22T23:21:46.424Z,4.3
2022-08-22T23:26:46.184Z,4.3
2022-08-22T23:31:45.970Z,4
2022-08-22T23:36:45.665Z,4
2022-08-22T23:41:45.448Z,4.4
2022-08-22T23:46:45.201Z,3.5
2022-08-22T23:51:44.964Z,3.6
2022-08-22T23:56:44.707Z,4.1
